Conata, South Dakota
Current Conditions -  °F | °C
As of 1:52 PM on Thursday 20 Nov 2014 (Local Time) from KRAP Reporting Station
Clear Clear  
Wind Chill: 18°   Ceiling: Unl
Heat Index: 25°   Visibility: 10mi
Dew Point: 21°   Wind: 6mph
Humidity: 85%   Direction: 130°SE
Pressure: 29.92"   Gusts: NA
Location:  43.793°N, 102.433°W
Report Text: KRAP 202052Z 13005KT 10SM CLR M04/M06 A2992 RMK AO2 SLP179 6//// T10391061 56019 PNO $
Loading
Personal Weather Stations






























Interactive Weather Map New forecast layout! Learn more

10-Day Weather Forecast

Advertisements
Track Severe Weather on mobile